Terminal Aerodrome Forecast
Issued by NWS

Home | Current Version | Previous Version | Text Only | Print | Product List | Glossary Off
Versions: 1 2 3 4 5 6 7 8 9 10 11 12 13 14 15 16 17 18 19 20 21 22

000
FTUS43 KGRB 260922 AAB
TAFCWA
TAF AMD
KCWA 260922Z 2609/2706 20007KT 1 1/2SM BR OVC003
      TEMPO 2609/2612 1/4SM FG VV002
     FM261200 21007KT 3SM -SHRA BR BKN005 OVC025
      TEMPO 2612/2614 1 1/2SM TSRA BR BKN025CB OVC040
     FM261400 23008KT P6SM SCT018 OVC025
     FM261900 24009G15KT P6SM SCT025 BKN040
     FM262300 19006KT P6SM SCT040 BKN250=

USA.gov is the U.S. government's official web portal to all federal, state and local government web resources and services.